Time;durP1;ratioP1;P1;durP2;ratioP2;P2;SDS_P1;SDS_P2;PMS_P1;PMS_P2;Temp;Humidity;BMP_temperature;BMP_pressure;BME280_temperature;BME280_humidity;BME280_pressure;Samples;Min_cycle;Max_cycle;Signal;HPM_P1;HPM_P2
2023/12/26 00:01:58;;;;;;;5.88;3.08;;;;;;;5.40;58.94;94880.25;4993137;28;20027;-70
2023/12/26 00:04:23;;;;;;;4.38;3.13;;;;;;;5.39;60.42;94876.03;4993132;28;20031;-71
2023/12/26 00:06:49;;;;;;;5.57;2.90;;;;;;;5.48;59.51;94878.03;4993076;28;20023;-71
2023/12/26 00:09:15;;;;;;;4.70;3.15;;;;;;;5.53;59.75;94864.88;4959432;28;20563;-70
2023/12/26 00:11:44;;;;;;;6.35;3.03;;;;;;;5.48;59.33;94862.59;4975866;28;20061;-71
2023/12/26 00:14:10;;;;;;;6.25;3.20;;;;;;;5.46;59.50;94866.19;4975453;28;20090;-71
2023/12/26 00:16:35;;;;;;;6.07;3.15;;;;;;;5.57;58.73;94868.91;4975637;28;20030;-72
2023/12/26 00:19:01;;;;;;;6.00;2.92;;;;;;;5.55;58.38;94865.63;4975346;28;20030;-70
2023/12/26 00:21:26;;;;;;;4.22;2.80;;;;;;;5.66;58.14;94863.19;4992859;28;20042;-70
2023/12/26 00:23:52;;;;;;;5.72;2.72;;;;;;;5.62;58.23;94864.31;4993278;28;20026;-71
2023/12/26 00:26:17;;;;;;;4.35;2.70;;;;;;;5.58;57.79;94852.53;4973326;28;20441;-69
2023/12/26 00:28:42;;;;;;;4.75;2.53;;;;;;;5.68;57.54;94868.25;4972262;28;20046;-70
2023/12/26 00:31:08;;;;;;;6.32;2.95;;;;;;;5.90;57.03;94865.16;4972007;28;20038;-71
2023/12/26 00:33:33;;;;;;;5.30;3.03;;;;;;;5.76;57.49;94878.91;4955753;28;20034;-72
2023/12/26 00:35:59;;;;;;;5.75;3.00;;;;;;;5.79;58.64;94878.72;4972028;28;20034;-70
2023/12/26 00:38:25;;;;;;;6.60;3.33;;;;;;;5.78;57.55;94883.03;4956110;28;20043;-71
2023/12/26 00:40:51;;;;;;;6.60;2.80;;;;;;;5.70;60.19;94895.59;4972958;28;20406;-71
2023/12/26 00:43:16;;;;;;;4.72;3.05;;;;;;;5.56;60.54;94899.00;4971898;28;20041;-70
2023/12/26 00:45:42;;;;;;;5.47;3.05;;;;;;;5.51;60.31;94908.78;4971129;28;20406;-70
2023/12/26 00:48:07;;;;;;;8.48;4.47;;;;;;;5.28;59.76;94904.22;4955253;28;20489;-71
2023/12/26 00:50:32;;;;;;;11.40;7.10;;;;;;;5.22;60.01;94910.56;4971442;28;20074;-71
2023/12/26 00:52:58;;;;;;;13.73;7.00;;;;;;;4.88;61.72;94917.72;4971448;28;20047;-70
2023/12/26 00:55:25;;;;;;;11.30;5.95;;;;;;;5.08;61.51;94923.44;4972421;28;20034;-70
2023/12/26 00:57:51;;;;;;;9.10;4.95;;;;;;;5.07;62.31;94937.22;4971626;28;20085;-71
2023/12/26 01:00:17;;;;;;;6.57;3.25;;;;;;;5.09;63.16;94925.09;4971491;28;20038;-71
2023/12/26 01:02:42;;;;;;;5.95;3.70;;;;;;;4.89;63.64;94929.66;4971288;28;20041;-71
2023/12/26 01:05:09;;;;;;;5.85;3.10;;;;;;;4.80;62.45;94932.78;4972772;28;20050;-71
2023/12/26 01:07:34;;;;;;;7.82;3.60;;;;;;;4.41;63.45;94934.16;4987103;28;20481;-71
2023/12/26 01:10:04;;;;;;;6.18;3.53;;;;;;;4.41;63.71;94926.44;4955147;28;20485;-71
2023/12/26 01:12:30;;;;;;;9.15;4.90;;;;;;;4.09;63.24;94917.13;4987062;28;20027;-71
2023/12/26 01:14:55;;;;;;;7.93;3.20;;;;;;;3.91;63.77;94922.38;4971165;28;20038;-71
2023/12/26 01:17:21;;;;;;;6.90;4.13;;;;;;;3.75;65.27;94934.41;4955184;28;20031;-71
2023/12/26 01:19:47;;;;;;;9.00;5.35;;;;;;;3.49;66.79;94939.19;4972453;28;20039;-71
2023/12/26 01:22:12;;;;;;;8.40;4.47;;;;;;;3.67;66.79;94936.56;4987087;28;20038;-71
2023/12/26 01:24:38;;;;;;;6.78;4.22;;;;;;;3.46;67.25;94929.09;4970960;28;20030;-71
2023/12/26 01:27:03;;;;;;;7.22;4.03;;;;;;;3.42;67.59;94930.16;4971118;28;20035;-71
2023/12/26 01:29:29;;;;;;;7.10;3.75;;;;;;;3.24;67.86;94920.88;4972082;28;20053;-70
2023/12/26 01:31:54;;;;;;;7.60;3.97;;;;;;;3.11;69.25;94924.06;4972248;28;20244;-70
2023/12/26 01:34:19;;;;;;;7.22;3.65;;;;;;;3.21;69.70;94908.19;4971990;28;20027;-70
2023/12/26 01:36:45;;;;;;;6.85;3.83;;;;;;;3.28;69.50;94914.63;4970888;28;20038;-70
2023/12/26 01:39:12;;;;;;;8.02;4.80;;;;;;;3.25;68.18;94920.75;4987059;28;20066;-71
2023/12/26 01:41:38;;;;;;;8.52;3.78;;;;;;;3.06;68.85;94923.44;4971032;28;20049;-71
2023/12/26 01:44:03;;;;;;;6.90;3.60;;;;;;;2.99;69.90;94919.56;4987287;28;20035;-71
2023/12/26 01:46:28;;;;;;;4.88;3.30;;;;;;;3.07;70.23;94932.84;4970950;28;20117;-71
2023/12/26 01:48:55;;;;;;;6.10;3.22;;;;;;;3.09;70.91;94928.47;4987222;28;20058;-71
2023/12/26 01:51:21;;;;;;;5.07;3.20;;;;;;;2.83;71.41;94926.38;4971882;28;20035;-71
2023/12/26 01:53:47;;;;;;;7.05;2.65;;;;;;;3.04;71.59;94925.28;4954780;28;20026;-70
2023/12/26 01:56:15;;;;;;;5.05;2.83;;;;;;;3.08;71.09;94925.94;4970711;28;20050;-70
2023/12/26 01:58:41;;;;;;;5.22;2.85;;;;;;;3.22;70.54;94928.63;4972344;28;20030;-70
2023/12/26 02:01:07;;;;;;;4.57;2.53;;;;;;;3.13;70.90;94913.72;4972004;28;20042;-70
2023/12/26 02:03:32;;;;;;;5.95;3.15;;;;;;;3.41;68.86;94925.94;4987085;28;20031;-70
2023/12/26 02:05:59;;;;;;;5.70;3.03;;;;;;;3.68;66.93;94926.22;4970728;28;20039;-70
2023/12/26 02:08:25;;;;;;;5.50;3.30;;;;;;;3.72;66.70;94930.25;4970802;28;20500;-71
2023/12/26 02:10:50;;;;;;;5.32;3.03;;;;;;;3.93;65.92;94922.31;4970541;28;20046;-71
2023/12/26 02:13:16;;;;;;;6.05;3.38;;;;;;;3.88;65.39;94907.13;4970684;28;20030;-71
2023/12/26 02:15:41;;;;;;;7.25;3.30;;;;;;;4.09;65.40;94923.09;4970515;28;20038;-71
2023/12/26 02:18:07;;;;;;;6.90;2.97;;;;;;;4.09;64.43;94911.97;4986849;28;20051;-71
2023/12/26 02:20:32;;;;;;;5.80;3.10;;;;;;;4.11;64.66;94926.41;4972011;28;20042;-71
2023/12/26 02:22:58;;;;;;;5.68;3.10;;;;;;;4.31;64.04;94927.84;4975785;28;20469;-71
2023/12/26 02:25:23;;;;;;;5.07;3.17;;;;;;;4.25;64.49;94929.03;4977545;28;20061;-70
2023/12/26 02:27:49;;;;;;;5.47;3.33;;;;;;;4.24;64.52;94921.41;4977608;28;20400;-71
2023/12/26 02:30:14;;;;;;;4.38;3.03;;;;;;;4.25;63.54;94923.06;4961476;28;20236;-70
2023/12/26 02:32:39;;;;;;;4.78;2.90;;;;;;;4.33;63.46;94925.22;4961313;28;20038;-70
2023/12/26 02:35:06;;;;;;;5.97;3.33;;;;;;;4.40;63.41;94916.22;4961270;28;20428;-70
2023/12/26 02:37:32;;;;;;;6.63;3.70;;;;;;;4.34;64.03;94909.69;4977451;28;20472;-71
2023/12/26 02:39:57;;;;;;;4.93;2.78;;;;;;;4.33;63.65;94925.22;4961212;28;20065;-71
2023/12/26 02:42:24;;;;;;;8.32;3.22;;;;;;;4.47;63.36;94920.94;4994759;28;20046;-70
2023/12/26 02:44:50;;;;;;;6.90;3.08;;;;;;;4.26;64.00;94935.00;4961448;28;20049;-70
2023/12/26 02:47:15;;;;;;;9.18;6.32;;;;;;;4.02;64.91;94921.78;4993269;28;20504;-70
2023/12/26 02:49:41;;;;;;;9.00;6.30;;;;;;;3.86;65.41;94926.94;4977167;28;20049;-71
2023/12/26 02:52:06;;;;;;;8.77;6.43;;;;;;;3.80;66.04;94919.56;4977265;28;20034;-70
2023/12/26 02:54:32;;;;;;;11.98;9.68;;;;;;;3.92;65.59;94947.16;4976911;28;20035;-70
2023/12/26 02:56:57;;;;;;;8.98;5.57;;;;;;;3.95;65.26;94939.28;4994494;28;20034;-70
2023/12/26 02:59:22;;;;;;;9.57;6.05;;;;;;;3.59;66.02;94939.53;4976964;28;20026;-70
2023/12/26 03:01:48;;;;;;;9.63;6.25;;;;;;;3.55;67.17;94944.00;4960766;28;20046;-70
2023/12/26 03:04:13;;;;;;;9.43;5.95;;;;;;;3.51;67.19;94927.13;4994283;28;20026;-71
2023/12/26 03:06:39;;;;;;;5.35;3.80;;;;;;;3.46;67.89;94935.97;4960832;28;20117;-70
2023/12/26 03:09:05;;;;;;;5.65;3.45;;;;;;;3.42;67.95;94943.00;4977030;28;20085;-70
2023/12/26 03:11:30;;;;;;;6.57;3.50;;;;;;;3.40;68.24;94944.84;4976950;28;20210;-70
2023/12/26 03:13:56;;;;;;;4.95;2.90;;;;;;;3.21;68.67;94946.69;4994488;28;20480;-70
2023/12/26 03:16:21;;;;;;;6.93;4.10;;;;;;;2.99;67.93;94934.97;4960539;28;20108;-71
2023/12/26 03:18:47;;;;;;;7.70;4.22;;;;;;;2.49;69.35;94928.06;4960738;28;20038;-70
2023/12/26 03:21:12;;;;;;;10.02;5.25;;;;;;;2.94;68.52;94954.91;4960363;28;20039;-71
2023/12/26 03:23:38;;;;;;;9.73;5.70;;;;;;;2.90;68.78;94954.22;4994247;28;20026;-71
2023/12/26 03:26:03;;;;;;;9.05;5.93;;;;;;;2.76;68.82;94953.25;4973182;28;20070;-70
2023/12/26 03:28:28;;;;;;;10.40;6.38;;;;;;;2.83;69.07;94964.88;4973267;28;20553;-71
2023/12/26 03:30:54;;;;;;;7.13;4.40;;;;;;;2.67;70.28;94962.22;4974018;28;20085;-71
2023/12/26 03:33:19;;;;;;;6.43;3.97;;;;;;;2.49;70.73;94947.75;4956890;28;20031;-70
2023/12/26 03:35:45;;;;;;;8.57;3.65;;;;;;;2.54;71.13;94954.31;4956971;28;20039;-71
2023/12/26 03:38:10;;;;;;;7.03;3.38;;;;;;;2.63;71.31;94959.00;4973024;28;20473;-70
2023/12/26 03:40:36;;;;;;;7.47;4.07;;;;;;;2.68;71.13;94946.78;4974347;28;20481;-70
2023/12/26 03:43:01;;;;;;;6.70;3.95;;;;;;;2.67;71.31;94951.97;4973043;28;20046;-70
2023/12/26 03:45:28;;;;;;;5.72;3.80;;;;;;;2.57;71.27;94945.66;4972938;28;20046;-71
2023/12/26 03:47:54;;;;;;;6.18;3.70;;;;;;;2.37;70.89;94946.63;4973038;28;20038;-71
2023/12/26 03:50:20;;;;;;;5.28;3.50;;;;;;;2.47;70.80;94947.81;4956724;28;20421;-71
2023/12/26 03:52:46;;;;;;;4.53;2.80;;;;;;;2.57;70.55;94949.03;4972725;28;20030;-71
2023/12/26 03:55:13;;;;;;;6.95;3.03;;;;;;;2.63;70.37;94948.72;4956860;28;20038;-71
2023/12/26 03:57:39;;;;;;;5.38;3.20;;;;;;;2.56;70.99;94947.38;4972832;28;20505;-71
2023/12/26 04:00:05;;;;;;;4.78;2.90;;;;;;;2.71;71.26;94950.91;4972505;28;20402;-71
2023/12/26 04:02:30;;;;;;;4.45;2.45;;;;;;;2.86;70.79;94944.19;4972573;28;20035;-71
2023/12/26 04:04:56;;;;;;;6.68;2.80;;;;;;;2.76;71.91;94945.53;4973835;28;20552;-71
2023/12/26 04:07:21;;;;;;;6.82;3.22;;;;;;;2.57;71.08;94915.69;4972374;28;20034;-71
2023/12/26 04:09:46;;;;;;;5.15;3.47;;;;;;;2.87;69.86;94956.09;4972542;28;20035;-71
2023/12/26 04:12:12;;;;;;;5.45;3.17;;;;;;;2.91;69.54;94962.75;4973640;28;20027;-71
2023/12/26 04:14:38;;;;;;;6.68;3.70;;;;;;;2.97;70.24;94951.34;4972223;28;20026;-71
2023/12/26 04:17:03;;;;;;;5.78;3.10;;;;;;;3.15;69.44;94958.13;4972434;28;20034;-70
2023/12/26 04:19:29;;;;;;;7.05;4.03;;;;;;;3.18;69.10;94964.84;4973414;28;20440;-71
2023/12/26 04:21:54;;;;;;;5.95;3.90;;;;;;;3.13;69.10;94965.88;4972247;28;20030;-70
2023/12/26 04:24:19;;;;;;;5.85;3.22;;;;;;;3.00;69.41;94972.53;4955921;28;20417;-70
2023/12/26 04:26:45;;;;;;;4.50;2.80;;;;;;;2.80;70.72;94970.97;4972047;28;20038;-71
2023/12/26 04:29:10;;;;;;;6.13;3.47;;;;;;;2.77;69.62;94965.19;4971985;28;20122;-69
2023/12/26 04:31:36;;;;;;;5.97;3.72;;;;;;;2.90;69.34;94973.94;4972074;28;20468;-70
2023/12/26 04:34:01;;;;;;;6.22;3.45;;;;;;;2.74;69.70;94967.91;4973569;28;20105;-70
2023/12/26 04:36:26;;;;;;;6.40;3.17;;;;;;;2.90;70.03;94979.06;4972069;28;20050;-71
2023/12/26 04:38:52;;;;;;;5.07;2.97;;;;;;;2.79;69.83;94977.03;4973551;28;20031;-71
2023/12/26 04:41:17;;;;;;;6.78;3.45;;;;;;;2.78;70.71;94990.75;4971772;28;20051;-70
2023/12/26 04:43:43;;;;;;;6.13;3.25;;;;;;;2.83;71.05;94978.53;4971272;28;20034;-70
2023/12/26 04:46:08;;;;;;;4.93;3.10;;;;;;;2.77;70.45;94973.69;4971844;28;20062;-71
2023/12/26 04:48:34;;;;;;;6.50;3.60;;;;;;;2.76;69.25;94989.16;4971955;28;20444;-70
2023/12/26 04:51:00;;;;;;;5.15;3.72;;;;;;;2.59;70.39;94984.84;4955805;28;20113;-70
2023/12/26 04:53:25;;;;;;;5.07;3.20;;;;;;;2.32;70.54;94976.78;4971413;28;20034;-70
2023/12/26 04:55:50;;;;;;;7.30;4.70;;;;;;;2.39;70.81;94986.66;4955545;28;20038;-70
2023/12/26 04:58:16;;;;;;;7.28;5.38;;;;;;;2.11;72.27;94973.50;4971521;28;20034;-71
2023/12/26 05:00:43;;;;;;;7.93;4.10;;;;;;;2.19;72.31;94982.47;4972704;28;20033;-70
2023/12/26 05:03:09;;;;;;;6.22;4.00;;;;;;;2.09;72.41;94981.28;4971493;28;20030;-70
2023/12/26 05:05:34;;;;;;;6.28;4.40;;;;;;;2.17;72.08;94975.75;4955540;28;20077;-70
2023/12/26 05:07:59;;;;;;;9.52;4.50;;;;;;;2.00;72.33;94985.06;4962826;28;20101;-70
2023/12/26 05:10:25;;;;;;;6.53;4.03;;;;;;;1.88;73.03;94984.81;4968336;28;20489;-71
2023/12/26 05:12:52;;;;;;;7.43;4.28;;;;;;;1.92;72.43;94970.97;4968008;28;20474;-70
2023/12/26 05:15:18;;;;;;;7.88;4.72;;;;;;;1.99;73.03;94982.59;4968149;28;20069;-70
2023/12/26 05:17:43;;;;;;;6.50;3.90;;;;;;;1.89;73.36;94982.16;4981903;28;20039;-71
2023/12/26 05:20:09;;;;;;;7.00;4.28;;;;;;;1.93;73.34;94975.19;4984466;28;20027;-71
2023/12/26 05:22:35;;;;;;;8.70;5.40;;;;;;;1.97;72.80;94974.13;4968381;28;20105;-70
2023/12/26 05:25:01;;;;;;;7.85;5.53;;;;;;;2.01;73.12;94970.56;4982678;28;20034;-70
2023/12/26 05:27:26;;;;;;;6.25;3.10;;;;;;;2.00;73.21;94950.94;4981540;28;20058;-71
2023/12/26 05:29:52;;;;;;;7.05;3.25;;;;;;;1.96;73.75;94952.00;4967358;28;20039;-70
2023/12/26 05:32:17;;;;;;;6.78;3.75;;;;;;;1.91;73.21;94967.56;4966726;28;20397;-70
2023/12/26 05:34:44;;;;;;;6.72;3.30;;;;;;;1.85;73.08;94955.06;4967464;28;20031;-70
2023/12/26 05:37:09;;;;;;;8.23;5.38;;;;;;;1.84;73.33;94973.03;4983674;28;20034;-71
2023/12/26 05:39:34;;;;;;;5.18;3.70;;;;;;;2.08;73.11;94976.22;4966853;28;20468;-70
2023/12/26 05:42:02;;;;;;;7.57;5.95;;;;;;;2.04;72.83;94933.69;4983393;28;20117;-71
2023/12/26 05:44:27;;;;;;;6.55;4.25;;;;;;;2.25;73.04;94971.09;4983195;28;20084;-72
2023/12/26 05:46:53;;;;;;;7.85;4.97;;;;;;;2.12;73.21;94952.09;4966045;28;20046;-71
2023/12/26 05:49:19;;;;;;;8.23;3.60;;;;;;;2.21;73.50;94983.25;4967821;28;20094;-70
2023/12/26 05:51:44;;;;;;;4.78;3.05;;;;;;;2.09;73.90;94960.78;4972630;28;20027;-71
2023/12/26 05:54:09;;;;;;;4.75;2.80;;;;;;;2.29;73.87;94979.50;4969797;28;20038;-72
2023/12/26 05:56:35;;;;;;;5.53;3.30;;;;;;;2.47;73.23;94981.97;4974545;28;20038;-71
2023/12/26 05:59:00;;;;;;;7.47;3.63;;;;;;;2.40;72.83;94987.50;4988593;28;20062;-71
2023/12/26 06:01:26;;;;;;;6.25;3.75;;;;;;;2.39;72.79;94989.22;4957353;28;20033;-71
2023/12/26 06:03:51;;;;;;;10.05;3.25;;;;;;;2.41;72.14;94984.03;4989841;28;20027;-69
2023/12/26 06:06:17;;;;;;;7.28;4.38;;;;;;;2.52;71.86;94984.34;4991123;28;20045;-71
2023/12/26 06:08:42;;;;;;;4.47;2.90;;;;;;;2.62;70.20;94990.69;4984949;28;20038;-70
2023/12/26 06:11:08;;;;;;;12.27;5.65;;;;;;;2.49;70.61;94987.06;4996482;28;20109;-70
2023/12/26 06:13:33;;;;;;;13.45;6.97;;;;;;;2.41;70.88;94984.03;4950039;28;20078;-70
2023/12/26 06:15:59;;;;;;;17.83;8.73;;;;;;;2.46;71.24;94993.16;4958014;28;20042;-68
2023/12/26 06:18:24;;;;;;;15.95;9.68;;;;;;;2.48;71.10;94985.41;4950793;28;20435;-70
2023/12/26 06:20:49;;;;;;;10.20;6.22;;;;;;;2.52;71.14;94992.03;4967359;28;20506;-68
2023/12/26 06:23:15;;;;;;;13.07;8.00;;;;;;;2.45;72.22;94991.50;4966601;28;20038;-69
2023/12/26 06:25:40;;;;;;;34.13;16.52;;;;;;;2.45;72.09;94985.53;4951517;28;20027;-69
2023/12/26 06:28:06;;;;;;;18.00;8.75;;;;;;;2.56;71.28;94997.84;4966564;28;20412;-68
2023/12/26 06:30:31;;;;;;;19.20;10.43;;;;;;;2.58;70.80;94991.72;4972507;28;20042;-68
2023/12/26 06:32:57;;;;;;;16.52;9.13;;;;;;;2.62;70.89;95003.50;4973850;28;20027;-68
2023/12/26 06:35:22;;;;;;;9.95;6.18;;;;;;;2.58;70.88;95001.16;4971576;28;20523;-67
2023/12/26 06:37:47;;;;;;;9.40;5.30;;;;;;;2.83;70.29;95005.91;4975213;28;20042;-67
2023/12/26 06:40:13;;;;;;;7.15;4.68;;;;;;;2.65;70.76;94982.84;4975708;28;20031;-67
2023/12/26 06:42:38;;;;;;;59.25;21.10;;;;;;;2.65;70.40;94993.09;4972061;28;20046;-67
2023/12/26 06:45:04;;;;;;;54.45;27.30;;;;;;;2.91;70.21;95008.94;4981273;28;20041;-67
2023/12/26 06:47:30;;;;;;;40.72;20.55;;;;;;;2.79;70.50;95010.38;4973236;28;20033;-67
2023/12/26 06:49:55;;;;;;;37.03;18.25;;;;;;;2.86;70.51;95011.72;4969633;28;20417;-67
2023/12/26 06:52:20;;;;;;;23.08;12.88;;;;;;;2.72;70.43;95003.06;4967559;28;20027;-67
2023/12/26 06:54:46;;;;;;;26.83;14.60;;;;;;;2.73;70.59;95000.44;4966871;28;20027;-67
2023/12/26 06:57:17;;;;;;;42.22;26.80;;;;;;;2.57;71.04;95012.34;4950276;28;20039;-67
2023/12/26 06:59:47;;;;;;;;;;;;;;;2.46;71.69;95015.41;4967950;28;20547;-67
2023/12/26 07:02:13;;;;;;;39.22;21.85;;;;;;;2.46;71.54;95018.81;4973838;28;19918;-67
2023/12/26 07:04:40;;;;;;;23.98;14.10;;;;;;;2.43;71.41;95007.88;4969465;28;20094;-67
2023/12/26 07:07:05;;;;;;;15.25;9.10;;;;;;;2.63;71.18;95025.69;4962467;28;20035;-67
2023/12/26 07:09:31;;;;;;;7.47;4.78;;;;;;;2.72;70.74;95029.53;4963848;28;20414;-66
2023/12/26 07:11:56;;;;;;;28.75;19.38;;;;;;;2.51;71.65;95030.56;4965514;28;20027;-67
2023/12/26 07:14:22;;;;;;;31.45;19.45;;;;;;;2.26;72.12;95000.13;4946301;28;20031;-67
2023/12/26 07:16:47;;;;;;;37.83;21.77;;;;;;;2.73;70.88;95035.50;4964776;28;20026;-68
2023/12/26 07:19:12;;;;;;;49.75;25.75;;;;;;;2.73;70.55;95030.34;4963600;28;20035;-67
2023/12/26 07:21:38;;;;;;;58.60;34.15;;;;;;;2.86;70.42;95037.38;4963133;28;20092;-68
2023/12/26 07:24:03;;;;;;;33.67;23.70;;;;;;;2.60;71.62;95043.78;4956740;28;20035;-67
2023/12/26 07:26:29;;;;;;;39.33;24.95;;;;;;;2.86;70.93;95047.66;4964162;28;20047;-68
2023/12/26 07:28:54;;;;;;;31.48;19.90;;;;;;;3.02;70.53;95052.03;4978394;28;20038;-67
2023/12/26 07:31:20;;;;;;;31.83;18.85;;;;;;;2.90;70.46;95058.63;4963627;28;20027;-67
2023/12/26 07:33:47;;;;;;;27.95;18.40;;;;;;;2.78;70.97;95048.94;4949235;28;20031;-67
2023/12/26 07:36:12;;;;;;;26.48;18.08;;;;;;;2.74;70.94;95047.44;4932647;28;20050;-67
2023/12/26 07:38:38;;;;;;;28.95;19.08;;;;;;;2.58;71.74;95057.59;4943666;28;20560;-67
2023/12/26 07:41:03;;;;;;;28.80;16.63;;;;;;;2.81;71.40;95049.59;4963510;28;20062;-67
2023/12/26 07:43:29;;;;;;;40.40;20.98;;;;;;;2.82;71.23;95045.31;4946708;28;20031;-68
2023/12/26 07:45:55;;;;;;;50.42;23.92;;;;;;;2.85;70.82;95030.59;4961173;28;20031;-72
2023/12/26 07:48:21;;;;;;;72.13;42.22;;;;;;;2.46;72.14;95028.22;4954888;28;20070;-70
2023/12/26 07:50:46;;;;;;;42.67;20.67;;;;;;;2.72;71.92;95044.94;4972459;28;20031;-67
2023/12/26 07:53:12;;;;;;;33.45;16.92;;;;;;;2.90;71.25;95053.47;4971749;28;20030;-70
2023/12/26 07:55:37;;;;;;;38.35;17.90;;;;;;;2.86;71.78;95051.97;4971401;28;20493;-68
2023/12/26 07:58:03;;;;;;;42.58;21.48;;;;;;;2.67;72.39;95044.31;4965580;28;20039;-68
2023/12/26 08:00:28;;;;;;;47.33;20.40;;;;;;;2.91;72.26;95055.13;4969732;28;20035;-67
2023/12/26 08:02:54;;;;;;;72.20;32.50;;;;;;;3.13;71.22;95057.47;4969055;28;20023;-69
2023/12/26 08:05:19;;;;;;;66.05;27.73;;;;;;;3.13;70.96;95055.72;4987298;28;20045;-68
2023/12/26 08:07:45;;;;;;;53.33;23.50;;;;;;;3.07;72.04;95061.19;4974631;28;20031;-68
2023/12/26 08:10:10;;;;;;;44.80;18.83;;;;;;;3.37;71.07;95052.81;4995721;28;20057;-69
2023/12/26 08:12:36;;;;;;;34.88;18.92;;;;;;;3.43;71.15;95032.00;4974312;28;20039;-68
2023/12/26 08:15:01;;;;;;;30.45;16.63;;;;;;;3.75;70.17;95052.59;4971890;28;20043;-68
2023/12/26 08:17:27;;;;;;;31.08;16.23;;;;;;;4.00;69.95;95058.09;4991629;28;20583;-68
2023/12/26 08:19:52;;;;;;;18.27;10.60;;;;;;;4.19;69.15;95042.53;4942276;28;20117;-68
2023/12/26 08:22:17;;;;;;;34.60;19.83;;;;;;;4.30;68.97;95039.38;4975662;28;20516;-68
2023/12/26 08:24:43;;;;;;;19.98;8.23;;;;;;;4.56;68.94;95044.81;4984134;28;20409;-68
2023/12/26 08:27:09;;;;;;;10.75;6.43;;;;;;;4.80;68.43;95045.22;4969088;28;20035;-67
2023/12/26 08:29:34;;;;;;;12.25;4.55;;;;;;;4.89;68.85;95039.53;4977324;28;20038;-71
2023/12/26 08:32:00;;;;;;;25.38;14.65;;;;;;;4.83;68.90;95050.19;4958086;28;20023;-70
2023/12/26 08:34:25;;;;;;;15.18;8.68;;;;;;;5.10;68.11;95037.50;4970374;28;20498;-68
2023/12/26 08:36:51;;;;;;;80.60;39.65;;;;;;;5.17;67.51;95045.69;4968767;28;20031;-68
2023/12/26 08:39:20;;;;;;;16.45;9.20;;;;;;;5.52;67.30;95041.06;4968362;28;20108;-67
2023/12/26 08:41:45;;;;;;;21.92;11.40;;;;;;;5.38;67.18;95018.69;4967243;28;20703;-68
2023/12/26 08:44:11;;;;;;;13.90;7.90;;;;;;;5.78;67.07;95048.03;4968178;28;21041;-68
2023/12/26 08:46:36;;;;;;;10.50;5.30;;;;;;;5.95;66.45;95038.50;4955475;28;20041;-70
2023/12/26 08:49:05;;;;;;;20.35;11.90;;;;;;;6.08;64.86;95039.41;4978528;28;20027;-68
2023/12/26 08:51:30;;;;;;;21.13;13.55;;;;;;;6.23;64.54;95043.59;4982383;28;20047;-68
2023/12/26 08:53:56;;;;;;;21.05;13.77;;;;;;;6.29;64.20;95038.97;4972242;28;20051;-68
2023/12/26 08:56:25;;;;;;;11.02;6.75;;;;;;;6.41;65.07;95040.81;4978061;28;20034;-68
2023/12/26 08:58:50;;;;;;;13.02;7.55;;;;;;;6.59;64.46;95028.50;4982582;28;20089;-68
2023/12/26 09:01:16;;;;;;;16.23;9.55;;;;;;;6.44;63.89;95025.13;4951561;28;20069;-68
2023/12/26 09:03:41;;;;;;;18.65;9.75;;;;;;;6.85;64.21;95025.06;4986060;28;20034;-68
2023/12/26 09:06:12;;;;;;;15.65;10.05;;;;;;;7.03;63.79;95041.13;4971059;28;20239;-68
2023/12/26 09:08:38;;;;;;;18.75;10.65;;;;;;;7.11;62.78;95033.69;4964195;28;20027;-68
2023/12/26 09:11:03;;;;;;;15.65;10.38;;;;;;;7.33;63.65;95030.53;4972618;28;20434;-68
2023/12/26 09:13:29;;;;;;;19.45;10.05;;;;;;;7.41;61.00;95031.75;4952841;28;20037;-67
2023/12/26 09:15:55;;;;;;;17.30;9.63;;;;;;;7.53;61.10;95029.19;4993041;28;20568;-68
2023/12/26 09:18:20;;;;;;;16.15;9.73;;;;;;;7.75;60.42;95014.81;4966289;28;20393;-68
2023/12/26 09:20:45;;;;;;;13.38;9.25;;;;;;;7.69;59.81;95008.28;4977064;28;20489;-68
2023/12/26 09:23:14;;;;;;;15.65;10.77;;;;;;;7.65;60.65;95009.41;4966732;28;20489;-68
2023/12/26 09:25:40;;;;;;;12.52;8.48;;;;;;;7.89;61.58;94991.41;4967864;28;20523;-67
2023/12/26 09:28:07;;;;;;;16.50;8.18;;;;;;;8.17;60.92;95002.41;4971928;28;20035;-68
2023/12/26 09:30:33;;;;;;;18.88;8.95;;;;;;;8.10;61.60;94993.41;4963139;28;20035;-68
2023/12/26 09:32:58;;;;;;;13.07;8.35;;;;;;;8.16;61.71;94988.66;4985476;28;20042;-68
2023/12/26 09:35:24;;;;;;;15.50;9.90;;;;;;;8.28;60.68;94992.94;4971619;28;20070;-68
2023/12/26 09:37:49;;;;;;;13.65;7.85;;;;;;;8.56;61.03;94990.19;4976479;28;20081;-68
2023/12/26 09:40:15;;;;;;;16.42;8.52;;;;;;;8.67;60.50;94977.28;4968229;28;20069;-69
2023/12/26 09:42:43;;;;;;;16.35;10.70;;;;;;;8.46;60.30;94944.22;4965661;28;20038;-68
2023/12/26 09:45:10;;;;;;;15.43;9.57;;;;;;;8.79;60.32;94976.38;4955011;28;20034;-68
2023/12/26 09:47:38;;;;;;;16.92;10.25;;;;;;;8.67;59.93;94952.22;4955434;28;20398;-69
2023/12/26 09:50:03;;;;;;;23.58;15.52;;;;;;;8.83;58.46;94962.28;4970804;28;20041;-68
2023/12/26 09:52:31;;;;;;;22.33;12.15;;;;;;;9.03;59.07;94967.75;4981789;28;20023;-70
2023/12/26 09:54:57;;;;;;;17.23;11.48;;;;;;;9.07;57.48;94953.63;4950217;28;20076;-69
2023/12/26 09:57:22;;;;;;;16.20;10.00;;;;;;;8.94;58.77;94932.97;4967325;28;20089;-68
2023/12/26 09:59:48;;;;;;;18.20;10.40;;;;;;;9.22;58.38;94954.25;4934809;28;20493;-71
2023/12/26 10:02:14;;;;;;;20.60;10.38;;;;;;;9.16;58.71;94945.16;4969353;28;20057;-70
2023/12/26 10:04:39;;;;;;;15.52;9.10;;;;;;;9.15;56.84;94952.13;4984475;28;20045;-71
2023/12/26 10:07:05;;;;;;;17.90;10.20;;;;;;;9.44;57.87;94938.72;4966771;28;20026;-73
2023/12/26 10:09:30;;;;;;;18.70;11.10;;;;;;;9.33;57.78;94941.28;4972645;28;20460;-75
2023/12/26 10:11:56;;;;;;;15.02;8.95;;;;;;;9.30;56.57;94951.91;4950973;28;20039;-73
2023/12/26 10:14:30;;;;;;;8.95;5.65;;;;;;;9.50;53.12;94938.25;4966410;28;20039;-73
2023/12/26 10:16:56;;;;;;;9.85;6.47;;;;;;;9.82;52.14;94933.16;4966532;28;20558;-76
2023/12/26 10:19:22;;;;;;;15.10;7.18;;;;;;;10.04;50.19;94921.13;4966452;28;20116;-74
2023/12/26 10:21:50;;;;;;;12.68;7.32;;;;;;;10.21;54.15;94935.34;4984277;28;20038;-75
2023/12/26 10:24:16;;;;;;;17.33;8.25;;;;;;;10.30;54.12;94926.84;4957558;28;20045;-78
2023/12/26 10:26:41;;;;;;;11.85;6.88;;;;;;;10.16;51.09;94927.91;4985739;28;20732;-75
2023/12/26 10:29:11;;;;;;;13.80;7.82;;;;;;;10.38;54.11;94926.25;4977290;28;20042;-73
2023/12/26 10:31:37;;;;;;;8.43;5.32;;;;;;;10.15;48.03;94931.47;4974869;28;20050;-75
2023/12/26 10:34:31;;;;;;;8.90;5.60;;;;;;;10.25;50.04;94914.22;4976250;28;20049;-77
2023/12/26 10:36:58;;;;;;;27.77;11.18;;;;;;;10.43;48.51;94909.34;4974657;28;20125;-73
2023/12/26 10:39:24;;;;;;;23.77;11.13;;;;;;;10.20;48.92;94913.75;4952100;28;20424;-73
2023/12/26 10:41:49;;;;;;;8.18;3.92;;;;;;;10.07;47.28;94905.28;4979818;28;20057;-73
2023/12/26 10:44:16;;;;;;;8.32;5.00;;;;;;;10.28;48.53;94906.22;4977601;28;20421;-73
2023/12/26 10:46:42;;;;;;;10.85;5.63;;;;;;;10.65;49.56;94899.81;4982109;28;20038;-72
2023/12/26 10:49:09;;;;;;;9.95;5.53;;;;;;;10.65;49.22;94882.44;4973346;28;20030;-73
2023/12/26 10:51:36;;;;;;;10.40;4.82;;;;;;;10.65;48.32;94898.03;4945761;28;20421;-74
2023/12/26 10:54:10;;;;;;;12.48;5.88;;;;;;;11.00;49.59;94899.50;4971557;28;20030;-77
2023/12/26 10:56:35;;;;;;;10.27;5.90;;;;;;;11.03;49.91;94890.63;4971491;28;20039;-74
2023/12/26 10:59:01;;;;;;;9.63;5.57;;;;;;;11.11;47.97;94898.59;4972279;28;20031;-76
2023/12/26 11:04:29;;;;;;;8.40;5.10;;;;;;;10.98;50.23;94896.22;4983297;28;20050;-74
2023/12/26 11:07:32;;;;;;;8.85;5.22;;;;;;;11.32;50.52;94880.38;4973242;28;20023;-71
2023/12/26 11:31:36;;;;;;;11.77;6.95;;;;;;;11.71;47.55;94834.53;4974602;28;20096;-72
2023/12/26 11:37:22;;;;;;;11.38;5.22;;;;;;;11.46;46.72;94830.63;4965619;28;20069;-72
2023/12/26 11:43:47;;;;;;;8.45;4.68;;;;;;;11.65;46.13;94835.06;4970190;28;20575;-71
2023/12/26 11:49:34;;;;;;;8.98;4.63;;;;;;;11.66;44.80;94830.66;4970481;28;20093;-70
2023/12/26 11:59:02;;;;;;;9.25;5.10;;;;;;;11.97;44.36;94814.03;4971353;28;20437;-71
2023/12/26 12:08:11;;;;;;;8.27;3.97;;;;;;;11.96;42.38;94809.78;4979185;28;20426;-70
2023/12/26 12:11:13;;;;;;;8.48;3.83;;;;;;;11.88;42.00;94814.03;4970474;28;20500;-71
2023/12/26 12:16:29;;;;;;;8.53;4.23;;;;;;;11.75;42.78;94809.03;4972212;28;20093;-70
2023/12/26 12:42:28;;;;;;;7.93;3.75;;;;;;;12.72;40.04;94790.84;4968470;28;20066;-72
2023/12/26 12:45:12;;;;;;;6.90;4.03;;;;;;;12.59;40.86;94774.66;4969571;28;20105;-72
2023/12/26 12:48:15;;;;;;;6.78;3.53;;;;;;;12.63;41.84;94786.47;4966716;28;20058;-72